Time;durP1;ratioP1;P1;durP2;ratioP2;P2;SDS_P1;SDS_P2;PMS_P1;PMS_P2;Temp;Humidity;BMP_temperature;BMP_pressure;BME280_temperature;BME280_humidity;BME280_pressure;Samples;Min_cycle;Max_cycle;Signal;HPM_P1;HPM_P2
2023/10/07 00:02:16;;;;;;;3.08;2.05;;;23.40;50.80;;;;;;5001957;28;20030;-67
2023/10/07 00:04:44;;;;;;;3.60;2.22;;;23.40;50.80;;;;;;5001275;28;20022;-68
2023/10/07 00:07:10;;;;;;;3.40;2.40;;;23.40;50.80;;;;;;5000979;28;20033;-68
2023/10/07 00:09:41;;;;;;;3.42;2.20;;;23.40;50.80;;;;;;5001246;28;20037;-66
2023/10/07 00:12:13;;;;;;;3.30;2.20;;;23.40;50.80;;;;;;4999663;28;20048;-66
2023/10/07 00:14:39;;;;;;;3.47;2.20;;;23.30;50.80;;;;;;5001329;28;20030;-63
2023/10/07 00:17:06;;;;;;;3.42;2.22;;;23.30;50.80;;;;;;5000369;28;20473;-63
2023/10/07 00:19:33;;;;;;;2.88;2.00;;;23.30;50.80;;;;;;5015578;28;20113;-64
2023/10/07 00:21:59;;;;;;;2.83;1.90;;;23.30;50.80;;;;;;5000340;28;20029;-64
2023/10/07 00:24:26;;;;;;;3.17;2.22;;;23.30;50.80;;;;;;5000832;28;20076;-63
2023/10/07 00:26:52;;;;;;;3.75;2.53;;;23.30;50.80;;;;;;5000457;28;20030;-64
2023/10/07 00:29:23;;;;;;;3.47;2.03;;;23.30;50.80;;;;;;4999000;28;20052;-64
2023/10/07 00:31:52;;;;;;;3.78;2.30;;;23.30;50.70;;;;;;5001824;28;20030;-64
2023/10/07 00:34:26;;;;;;;3.58;2.13;;;23.30;50.70;;;;;;4999146;28;20030;-66
2023/10/07 00:36:53;;;;;;;3.55;2.20;;;23.30;50.70;;;;;;4998106;28;20498;-67
2023/10/07 00:39:21;;;;;;;3.28;2.13;;;23.30;50.70;;;;;;4998938;28;20026;-67
2023/10/07 00:41:50;;;;;;;3.35;1.92;;;23.20;50.70;;;;;;4999617;28;20916;-67
2023/10/07 00:44:31;;;;;;;2.92;1.98;;;23.20;50.70;;;;;;4999742;28;20075;-66
2023/10/07 00:49:40;;;;;;;3.28;2.28;;;23.20;50.70;;;;;;4999663;28;20022;-67
2023/10/07 00:52:13;;;;;;;3.22;2.17;;;23.20;50.70;;;;;;5000042;28;20041;-66
2023/10/07 00:54:50;;;;;;;3.28;1.98;;;23.20;50.60;;;;;;4999905;28;20516;-67
2023/10/07 00:57:34;;;;;;;3.25;2.30;;;23.20;50.60;;;;;;4999142;28;20022;-66
2023/10/07 01:00:12;;;;;;;2.75;1.95;;;23.20;50.60;;;;;;4999424;28;20034;-66
2023/10/07 01:02:38;;;;;;;3.40;2.30;;;23.20;50.60;;;;;;4999808;28;20068;-67
2023/10/07 01:05:13;;;;;;;3.97;2.33;;;23.20;50.60;;;;;;4999169;28;20093;-67
2023/10/07 01:07:46;;;;;;;3.60;1.90;;;23.20;50.70;;;;;;5000058;28;20033;-66
2023/10/07 01:10:13;;;;;;;3.30;2.15;;;23.20;50.60;;;;;;4997877;28;20029;-66
2023/10/07 01:12:40;;;;;;;3.15;2.00;;;23.20;50.70;;;;;;5000879;28;20045;-67
2023/10/07 01:15:23;;;;;;;3.40;2.10;;;23.20;50.70;;;;;;5000406;28;20030;-66
2023/10/07 01:18:06;;;;;;;3.45;2.30;;;23.10;50.60;;;;;;4998800;28;20025;-66
2023/10/07 01:20:38;;;;;;;2.58;1.70;;;23.10;50.60;;;;;;5000129;28;20474;-65
2023/10/07 01:23:04;;;;;;;3.60;2.10;;;23.10;50.60;;;;;;4999637;28;20437;-66
2023/10/07 01:25:31;;;;;;;3.22;2.15;;;23.10;50.60;;;;;;4997736;28;20123;-61
2023/10/07 01:28:01;;;;;;;3.33;2.08;;;23.10;50.60;;;;;;5000338;28;20026;-61
2023/10/07 01:30:29;;;;;;;3.10;2.10;;;23.10;50.60;;;;;;4999934;28;20033;-62
2023/10/07 01:33:02;;;;;;;3.17;2.13;;;23.10;50.60;;;;;;4998734;28;20109;-62
2023/10/07 01:35:32;;;;;;;2.88;2.00;;;23.10;50.60;;;;;;4998693;28;20119;-62
2023/10/07 01:38:07;;;;;;;3.80;2.33;;;23.00;50.60;;;;;;4999947;28;20030;-61
2023/10/07 01:43:19;;;;;;;3.42;2.38;;;23.00;50.60;;;;;;4999769;28;20030;-61
2023/10/07 01:45:47;;;;;;;3.00;2.17;;;23.00;50.70;;;;;;5005821;28;20065;-66
2023/10/07 01:48:13;;;;;;;3.00;1.98;;;23.00;50.70;;;;;;4998089;28;20106;-67
2023/10/07 01:50:47;;;;;;;3.10;1.98;;;23.00;50.70;;;;;;4999610;28;20178;-66
2023/10/07 01:53:14;;;;;;;3.00;2.00;;;23.00;50.70;;;;;;4998159;28;20049;-67
2023/10/07 01:55:44;;;;;;;3.28;2.10;;;23.00;50.80;;;;;;4996770;28;20425;-66
2023/10/07 01:58:14;;;;;;;3.40;2.15;;;23.00;50.70;;;;;;4997768;28;20544;-66
2023/10/07 02:03:13;;;;;;;2.60;1.90;;;22.90;50.70;;;;;;4998560;28;20045;-67
2023/10/07 02:05:40;;;;;;;3.30;1.92;;;22.90;50.70;;;;;;4999340;28;20026;-67
2023/10/07 02:08:14;;;;;;;3.13;2.15;;;22.90;50.70;;;;;;4997394;28;20192;-65
2023/10/07 02:10:41;;;;;;;3.30;2.15;;;22.90;50.70;;;;;;4999262;28;20029;-68
2023/10/07 02:13:09;;;;;;;2.60;1.80;;;22.90;50.70;;;;;;4997971;28;20727;-66
2023/10/07 02:15:37;;;;;;;3.00;1.90;;;22.90;50.80;;;;;;4999678;28;20040;-66
2023/10/07 02:18:04;;;;;;;3.08;1.83;;;22.90;50.80;;;;;;4998916;28;20022;-67
2023/10/07 02:20:38;;;;;;;2.40;1.80;;;22.90;50.80;;;;;;4998830;28;20494;-66
2023/10/07 02:23:12;;;;;;;2.50;1.70;;;22.90;50.80;;;;;;4996792;28;20045;-66
2023/10/07 02:25:40;;;;;;;2.60;1.88;;;22.80;50.70;;;;;;4999137;28;20441;-68
2023/10/07 02:28:06;;;;;;;2.63;1.83;;;22.80;50.80;;;;;;4998379;28;20055;-65
2023/10/07 02:30:39;;;;;;;3.22;2.00;;;22.80;51.30;;;;;;4999405;28;20026;-65
2023/10/07 02:33:08;;;;;;;3.00;1.88;;;22.80;50.80;;;;;;4998720;28;20046;-65
2023/10/07 02:35:36;;;;;;;2.50;1.67;;;22.80;50.80;;;;;;4999769;28;20430;-66
2023/10/07 02:38:03;;;;;;;2.78;1.77;;;22.80;50.80;;;;;;5000211;28;20160;-66
2023/10/07 02:40:49;;;;;;;2.70;1.92;;;22.70;50.80;;;;;;4998272;28;20049;-66
2023/10/07 02:43:15;;;;;;;3.03;1.80;;;22.70;50.80;;;;;;4996679;28;20104;-66
2023/10/07 02:45:45;;;;;;;2.33;1.80;;;22.70;50.80;;;;;;4998620;28;20027;-67
2023/10/07 02:48:11;;;;;;;2.55;1.80;;;22.70;50.80;;;;;;5000025;28;20509;-66
2023/10/07 02:50:42;;;;;;;2.65;1.60;;;22.70;50.80;;;;;;4997674;28;20023;-66
2023/10/07 02:53:13;;;;;;;1.92;1.40;;;22.70;50.80;;;;;;4999947;28;20042;-66
2023/10/07 02:55:58;;;;;;;2.58;1.70;;;22.70;50.80;;;;;;4998751;28;20037;-61
2023/10/07 02:58:32;;;;;;;2.70;1.70;;;22.70;50.80;;;;;;4997056;28;20033;-61
2023/10/07 03:01:10;;;;;;;3.03;1.77;;;22.70;50.80;;;;;;4998794;28;20458;-61
2023/10/07 03:03:38;;;;;;;2.58;1.70;;;22.70;50.80;;;;;;4996194;28;20050;-61
2023/10/07 03:06:07;;;;;;;3.10;1.92;;;22.70;50.80;;;;;;4999915;28;20105;-61
2023/10/07 03:11:12;;;;;;;3.15;2.00;;;22.70;50.80;;;;;;4997211;28;20479;-64
2023/10/07 03:13:45;;;;;;;2.80;1.83;;;22.60;50.80;;;;;;4998473;28;20419;-60
2023/10/07 03:18:48;;;;;;;3.22;1.98;;;22.60;50.80;;;;;;5002342;28;20045;-61
2023/10/07 03:21:15;;;;;;;2.80;1.65;;;22.60;50.80;;;;;;5000667;28;20037;-62
2023/10/07 03:23:58;;;;;;;2.35;1.60;;;22.60;50.80;;;;;;5001272;28;20022;-63
2023/10/07 03:26:24;;;;;;;2.40;1.50;;;22.60;50.80;;;;;;5001352;28;20478;-61
2023/10/07 03:28:54;;;;;;;2.58;1.70;;;22.60;50.90;;;;;;5002845;28;20030;-62
2023/10/07 03:31:39;;;;;;;2.40;1.60;;;22.60;51.40;;;;;;5002352;28;20504;-62
2023/10/07 03:34:12;;;;;;;2.72;1.90;;;22.60;50.90;;;;;;5001893;28;20055;-61
2023/10/07 03:36:57;;;;;;;2.85;1.75;;;22.60;50.90;;;;;;5000774;28;20025;-61
2023/10/07 03:39:26;;;;;;;2.50;1.80;;;22.60;50.80;;;;;;5001057;28;20037;-61
2023/10/07 03:41:59;;;;;;;3.22;1.77;;;22.60;50.90;;;;;;5000239;28;20014;-63
2023/10/07 03:44:25;;;;;;;2.75;1.70;;;22.60;50.90;;;;;;5001641;28;20136;-62
2023/10/07 03:46:54;;;;;;;2.40;1.60;;;22.50;50.80;;;;;;5002890;28;20026;-67
2023/10/07 03:49:21;;;;;;;2.75;1.73;;;22.50;50.90;;;;;;5002772;28;20524;-68
2023/10/07 03:51:48;;;;;;;2.35;1.67;;;22.50;50.80;;;;;;4998669;28;20130;-68
2023/10/07 03:54:24;;;;;;;2.47;1.70;;;22.50;50.80;;;;;;5009212;28;20304;-67
2023/10/07 03:56:52;;;;;;;2.47;1.80;;;22.50;50.90;;;;;;5001602;28;20138;-66
2023/10/07 03:59:18;;;;;;;2.45;1.60;;;22.50;50.90;;;;;;5015183;28;20520;-67
2023/10/07 04:01:44;;;;;;;2.60;1.70;;;22.50;50.90;;;;;;5000784;28;20031;-67
2023/10/07 04:04:12;;;;;;;3.08;1.75;;;22.50;50.90;;;;;;5016532;28;20050;-68
2023/10/07 04:06:38;;;;;;;2.53;1.60;;;22.50;50.90;;;;;;5001600;28;20046;-66
2023/10/07 04:09:08;;;;;;;2.58;1.60;;;22.50;50.90;;;;;;5014378;28;20531;-66
2023/10/07 04:11:36;;;;;;;2.50;1.65;;;22.50;51.40;;;;;;5000124;28;20037;-66
2023/10/07 04:16:52;;;;;;;2.75;1.88;;;22.50;50.90;;;;;;5002116;28;20112;-67
2023/10/07 04:21:44;;;;;;;2.50;1.60;;;22.50;50.90;;;;;;5002556;28;20323;-66
2023/10/07 04:24:11;;;;;;;1.95;1.45;;;22.40;50.90;;;;;;5000570;28;20040;-67
2023/10/07 04:26:39;;;;;;;2.08;1.50;;;22.50;50.90;;;;;;5001107;28;20036;-67
2023/10/07 04:29:17;;;;;;;2.40;1.40;;;22.40;50.90;;;;;;4996046;28;20510;-66
2023/10/07 04:31:51;;;;;;;2.40;1.52;;;22.40;50.90;;;;;;4999138;28;20034;-67
2023/10/07 04:34:20;;;;;;;2.53;1.58;;;22.40;50.90;;;;;;4999631;28;20117;-67
2023/10/07 04:42:21;;;;;;;3.40;1.63;;;22.40;51.00;;;;;;4999516;28;20033;-66
2023/10/07 04:52:41;;;;;;;2.00;1.40;;;22.40;51.10;;;;;;5001450;28;20034;-67
2023/10/07 04:55:13;;;;;;;2.55;1.55;;;22.30;51.00;;;;;;5001394;28;20104;-67
2023/10/07 04:57:44;;;;;;;3.80;1.70;;;22.40;51.10;;;;;;4998024;28;20034;-67
2023/10/07 05:00:34;;;;;;;2.65;1.60;;;22.30;51.10;;;;;;4999278;28;20467;-67
2023/10/07 05:03:02;;;;;;;2.15;1.38;;;22.30;51.10;;;;;;5000981;28;20029;-67
2023/10/07 05:05:30;;;;;;;2.13;1.50;;;22.30;51.10;;;;;;4998850;28;20477;-67
2023/10/07 05:07:58;;;;;;;2.35;1.60;;;22.30;51.10;;;;;;5000227;28;20438;-67
2023/10/07 05:10:28;;;;;;;2.50;1.60;;;22.30;51.10;;;;;;4999621;28;20031;-67
2023/10/07 05:12:55;;;;;;;2.70;1.60;;;22.30;51.10;;;;;;4998761;28;20545;-67
2023/10/07 05:15:25;;;;;;;2.42;1.52;;;22.30;51.10;;;;;;4999891;28;20110;-67
2023/10/07 05:17:53;;;;;;;2.80;1.60;;;22.30;51.10;;;;;;4999960;28;20540;-62
2023/10/07 05:20:28;;;;;;;2.45;1.60;;;22.30;51.10;;;;;;5001785;28;20112;-61
2023/10/07 05:22:55;;;;;;;2.33;1.60;;;22.20;51.60;;;;;;4999479;28;20038;-61
2023/10/07 05:25:21;;;;;;;2.40;1.50;;;22.30;51.10;;;;;;4997251;28;20088;-62
2023/10/07 05:27:50;;;;;;;2.45;1.40;;;22.20;51.10;;;;;;4998731;28;20020;-61
2023/10/07 05:30:18;;;;;;;2.80;1.70;;;22.20;51.10;;;;;;4999644;28;20030;-62
2023/10/07 05:32:48;;;;;;;2.67;1.73;;;22.20;51.10;;;;;;4999782;28;20257;-62
2023/10/07 05:35:15;;;;;;;2.42;1.55;;;22.20;51.10;;;;;;5001753;28;20022;-63
2023/10/07 05:37:42;;;;;;;2.72;1.60;;;22.20;51.10;;;;;;4997967;28;20576;-61
2023/10/07 05:40:13;;;;;;;2.35;1.40;;;22.20;51.10;;;;;;4998135;28;20026;-62
2023/10/07 05:42:39;;;;;;;2.35;1.50;;;22.20;51.10;;;;;;4997034;28;20126;-62
2023/10/07 05:45:07;;;;;;;2.67;1.50;;;22.20;51.20;;;;;;4998843;28;20046;-62
2023/10/07 05:47:33;;;;;;;2.25;1.45;;;22.20;51.20;;;;;;4999913;28;20112;-61
2023/10/07 05:50:00;;;;;;;2.40;1.58;;;22.20;51.20;;;;;;5000143;28;20438;-62
2023/10/07 05:52:28;;;;;;;2.90;1.77;;;22.20;51.20;;;;;;4999172;28;20527;-62
2023/10/07 05:54:56;;;;;;;2.60;1.70;;;22.20;51.20;;;;;;4997853;28;20040;-62
2023/10/07 05:57:23;;;;;;;2.65;1.60;;;22.20;51.20;;;;;;4997208;28;20022;-64
2023/10/07 05:59:50;;;;;;;3.00;1.70;;;22.10;51.10;;;;;;4997082;28;20045;-61
2023/10/07 06:02:16;;;;;;;2.33;1.52;;;22.10;51.10;;;;;;4998284;28;20114;-63
2023/10/07 06:04:44;;;;;;;2.88;1.80;;;22.10;51.10;;;;;;4997714;28;20216;-63
2023/10/07 06:07:14;;;;;;;2.97;1.70;;;22.10;51.20;;;;;;4998834;28;20080;-67
2023/10/07 06:09:42;;;;;;;2.22;1.48;;;22.10;51.20;;;;;;5000163;28;20036;-67
2023/10/07 06:12:09;;;;;;;2.33;1.60;;;22.10;51.20;;;;;;4999389;28;20026;-66
2023/10/07 06:14:35;;;;;;;2.15;1.40;;;22.10;51.20;;;;;;4997982;28;20032;-67
2023/10/07 06:17:01;;;;;;;2.30;1.40;;;22.10;51.20;;;;;;4999164;28;20041;-67
2023/10/07 06:19:26;;;;;;;2.20;1.40;;;22.10;51.20;;;;;;4997079;28;20042;-67
2023/10/07 06:21:52;;;;;;;2.20;1.50;;;22.10;51.20;;;;;;4998646;28;20048;-67
2023/10/07 06:24:21;;;;;;;2.70;1.70;;;22.10;51.20;;;;;;4999080;28;20379;-67
2023/10/07 06:26:53;;;;;;;2.67;1.63;;;22.00;51.20;;;;;;4999947;28;20124;-65
2023/10/07 06:29:19;;;;;;;2.10;1.23;;;22.10;51.20;;;;;;4998434;28;20042;-63
2023/10/07 06:31:55;;;;;;;3.05;1.60;;;22.10;51.30;;;;;;4997102;28;20494;-64
2023/10/07 06:34:25;;;;;;;2.53;1.60;;;22.10;51.20;;;;;;4998239;28;20026;-63
2023/10/07 06:36:52;;;;;;;2.78;1.38;;;22.10;51.20;;;;;;4997870;28;20512;-64
2023/10/07 06:39:27;;;;;;;2.42;1.58;;;22.10;51.20;;;;;;4997007;28;20466;-63
2023/10/07 06:41:55;;;;;;;3.08;1.60;;;22.10;51.20;;;;;;4999839;28;20018;-64
2023/10/07 06:44:23;;;;;;;2.50;1.50;;;22.00;51.20;;;;;;4997207;28;20041;-64
2023/10/07 06:46:54;;;;;;;2.30;1.40;;;22.00;51.20;;;;;;4999131;28;20530;-63
2023/10/07 06:49:21;;;;;;;2.60;1.52;;;22.00;51.20;;;;;;4998866;28;20033;-63
2023/10/07 06:51:56;;;;;;;2.22;1.50;;;22.00;51.20;;;;;;4997686;28;20030;-63
2023/10/07 06:54:32;;;;;;;2.83;1.40;;;22.00;51.20;;;;;;5003581;28;20022;-63
2023/10/07 06:57:04;;;;;;;2.10;1.33;;;22.00;51.20;;;;;;5008988;28;20551;-63
2023/10/07 06:59:30;;;;;;;2.72;1.50;;;22.00;51.20;;;;;;5000948;28;20057;-63
2023/10/07 07:02:06;;;;;;;2.40;1.42;;;22.00;51.30;;;;;;5003620;28;20055;-63
2023/10/07 07:04:32;;;;;;;2.83;1.75;;;22.00;51.30;;;;;;5003314;28;20026;-63
2023/10/07 07:06:58;;;;;;;2.40;1.50;;;22.00;51.80;;;;;;5001105;28;20080;-63
2023/10/07 07:12:12;;;;;;;2.72;1.55;;;22.00;51.30;;;;;;5002076;28;20451;-63
2023/10/07 07:14:51;;;;;;;2.33;1.33;;;22.00;51.30;;;;;;4999934;28;20053;-63
2023/10/07 07:17:30;;;;;;;2.40;1.50;;;22.00;51.30;;;;;;5003863;28;20081;-61
2023/10/07 07:22:47;;;;;;;2.28;1.50;;;22.00;51.30;;;;;;5000683;28;20031;-63
2023/10/07 07:25:39;;;;;;;2.38;1.55;;;21.90;51.30;;;;;;5001972;28;20056;-61
2023/10/07 07:28:05;;;;;;;2.60;1.80;;;21.90;51.30;;;;;;5001377;28;20037;-63
2023/10/07 07:30:35;;;;;;;1.92;1.35;;;21.90;51.30;;;;;;4999346;28;20367;-61
2023/10/07 07:33:12;;;;;;;2.00;1.25;;;21.90;51.30;;;;;;5002829;28;20019;-60
2023/10/07 07:35:40;;;;;;;2.20;1.45;;;21.90;51.30;;;;;;5002452;28;20394;-61
2023/10/07 07:40:52;;;;;;;2.78;1.42;;;21.90;51.30;;;;;;5002273;28;20402;-63
2023/10/07 07:43:25;;;;;;;2.85;1.60;;;21.90;51.30;;;;;;4999284;28;20033;-64
2023/10/07 07:46:06;;;;;;;2.38;1.40;;;21.90;51.30;;;;;;5000716;28;20030;-64
2023/10/07 07:48:36;;;;;;;3.10;1.70;;;21.90;51.30;;;;;;5000506;28;20022;-64
2023/10/07 07:51:03;;;;;;;2.85;1.60;;;21.90;51.40;;;;;;5001720;28;20444;-63
2023/10/07 07:53:30;;;;;;;2.38;1.50;;;21.90;51.40;;;;;;5001222;28;20030;-64
2023/10/07 07:55:58;;;;;;;2.55;1.60;;;21.90;51.40;;;;;;5000876;28;20461;-64
2023/10/07 07:58:24;;;;;;;3.03;1.63;;;21.90;51.90;;;;;;5000280;28;20026;-63
2023/10/07 08:00:58;;;;;;;2.45;1.50;;;21.90;51.40;;;;;;4999902;28;20044;-63
2023/10/07 08:03:25;;;;;;;3.20;1.50;;;21.90;51.40;;;;;;4999405;28;20092;-64
2023/10/07 08:05:51;;;;;;;2.67;1.70;;;21.90;51.40;;;;;;5001346;28;20053;-63
2023/10/07 08:08:25;;;;;;;3.20;1.67;;;21.90;51.40;;;;;;5001613;28;20091;-63
2023/10/07 08:10:54;;;;;;;2.38;1.60;;;21.90;51.40;;;;;;5001085;28;20177;-63
2023/10/07 08:13:23;;;;;;;2.30;1.40;;;21.90;51.40;;;;;;5000590;28;20032;-63
2023/10/07 08:15:51;;;;;;;2.33;1.60;;;21.90;51.40;;;;;;5015772;28;20030;-64
2023/10/07 08:18:22;;;;;;;3.63;1.80;;;21.90;51.40;;;;;;5000817;28;20482;-63
2023/10/07 08:20:56;;;;;;;2.45;1.63;;;21.90;51.40;;;;;;5000068;28;20076;-63
2023/10/07 08:23:28;;;;;;;2.08;1.30;;;21.90;51.40;;;;;;5000016;28;20457;-64
2023/10/07 08:25:58;;;;;;;2.22;1.52;;;21.90;51.50;;;;;;5000923;28;20084;-64
2023/10/07 08:28:41;;;;;;;3.10;1.90;;;21.90;51.50;;;;;;5000971;28;20033;-63
2023/10/07 08:31:20;;;;;;;2.90;1.88;;;21.90;51.40;;;;;;5001958;28;20041;-63
2023/10/07 08:33:53;;;;;;;2.85;1.85;;;21.90;51.40;;;;;;5000844;28;20025;-63
2023/10/07 08:36:29;;;;;;;2.65;1.65;;;21.90;51.40;;;;;;5001184;28;20022;-63
2023/10/07 08:38:59;;;;;;;2.70;1.70;;;21.80;51.40;;;;;;5000440;28;20033;-64
2023/10/07 08:41:27;;;;;;;2.38;1.58;;;21.80;51.40;;;;;;4999040;28;20038;-63
2023/10/07 08:44:08;;;;;;;2.95;1.60;;;21.80;51.40;;;;;;5001062;28;20115;-64
2023/10/07 08:46:39;;;;;;;2.72;1.55;;;21.80;51.40;;;;;;5001122;28;20515;-63
2023/10/07 08:49:13;;;;;;;2.50;1.65;;;21.80;51.40;;;;;;5000940;28;20058;-65
2023/10/07 08:51:43;;;;;;;2.70;1.50;;;21.90;51.50;;;;;;5000717;28;20502;-65
2023/10/07 08:54:25;;;;;;;2.70;1.45;;;21.90;51.50;;;;;;5001010;28;20390;-65
2023/10/07 08:56:55;;;;;;;3.00;1.80;;;21.80;51.50;;;;;;5000598;28;20420;-65
2023/10/07 08:59:25;;;;;;;2.30;1.55;;;21.80;51.50;;;;;;4998656;28;20714;-65
2023/10/07 09:01:57;;;;;;;2.90;1.60;;;21.80;51.50;;;;;;4998530;28;20034;-64
2023/10/07 09:04:31;;;;;;;2.40;1.55;;;21.80;51.50;;;;;;4999906;28;20092;-65
2023/10/07 09:07:00;;;;;;;2.65;1.63;;;21.80;51.50;;;;;;4998503;28;20026;-65
2023/10/07 09:09:39;;;;;;;2.67;1.40;;;21.80;51.50;;;;;;4999928;28;20033;-65
2023/10/07 09:12:15;;;;;;;2.70;1.70;;;21.80;51.60;;;;;;4997883;28;20081;-65
2023/10/07 09:14:51;;;;;;;2.70;1.70;;;21.80;51.60;;;;;;4998088;28;20032;-65
2023/10/07 09:17:20;;;;;;;2.78;1.63;;;21.80;51.60;;;;;;5000251;28;20389;-64
2023/10/07 09:19:52;;;;;;;2.90;1.80;;;21.70;51.50;;;;;;4997249;28;20509;-66
2023/10/07 09:22:24;;;;;;;3.10;1.75;;;21.80;51.60;;;;;;5000519;28;20030;-65
2023/10/07 09:24:54;;;;;;;2.90;1.45;;;21.80;51.60;;;;;;4998766;28;20481;-66
2023/10/07 09:27:36;;;;;;;2.92;1.77;;;21.70;51.60;;;;;;4999004;28;20018;-65
2023/10/07 09:33:15;;;;;;;2.50;1.70;;;21.70;51.60;;;;;;5014763;28;20116;-65
2023/10/07 09:36:22;;;;;;;2.95;1.88;;;21.70;51.60;;;;;;5000668;28;20597;-66
2023/10/07 09:38:41;;;;;;;2.45;1.65;;;21.70;51.60;;;;;;4999253;28;20033;-66
2023/10/07 09:43:51;;;;;;;2.85;1.70;;;21.80;51.70;;;;;;4999051;28;20041;-65
2023/10/07 09:46:24;;;;;;;2.58;1.60;;;21.70;51.70;;;;;;4998049;28;20061;-66
2023/10/07 09:48:57;;;;;;;2.85;1.80;;;21.80;51.70;;;;;;5000054;28;20046;-65
2023/10/07 09:51:28;;;;;;;2.63;1.60;;;21.70;51.70;;;;;;4998483;28;20042;-65
2023/10/07 09:54:29;;;;;;;3.05;1.60;;;21.70;51.70;;;;;;4998488;28;20399;-66
2023/10/07 09:57:19;;;;;;;2.70;1.70;;;21.70;51.80;;;;;;4998801;28;20029;-65
2023/10/07 10:03:12;;;;;;;3.28;1.92;;;21.70;51.80;;;;;;4998646;28;20027;-63
2023/10/07 10:06:16;;;;;;;2.58;1.80;;;21.70;51.80;;;;;;4997434;28;20737;-63
2023/10/07 10:08:59;;;;;;;2.80;1.50;;;21.70;51.80;;;;;;4998276;28;20025;-60
2023/10/07 10:14:16;;;;;;;2.58;1.73;;;21.70;51.80;;;;;;4999338;28;20018;-62
2023/10/07 10:16:51;;;;;;;3.25;1.60;;;21.70;51.80;;;;;;4997601;28;20040;-60
2023/10/07 10:19:47;;;;;;;2.60;1.60;;;21.80;51.90;;;;;;4998456;28;20397;-60
2023/10/07 10:22:22;;;;;;;4.22;1.48;;;21.80;52.00;;;;;;5000266;28;20174;-60
2023/10/07 10:24:48;;;;;;;3.00;1.90;;;21.70;51.90;;;;;;4996672;28;20385;-61
2023/10/07 10:27:17;;;;;;;2.60;1.70;;;21.70;51.90;;;;;;4996962;28;20184;-60
2023/10/07 10:30:24;;;;;;;3.42;1.70;;;21.70;51.90;;;;;;4995723;28;20076;-60
2023/10/07 10:32:54;;;;;;;3.22;1.90;;;21.70;52.00;;;;;;4999549;28;20049;-61
2023/10/07 10:35:23;;;;;;;3.58;1.90;;;21.70;52.30;;;;;;4999865;28;20026;-60
2023/10/07 10:37:59;;;;;;;3.78;1.98;;;21.70;52.30;;;;;;4999566;28;20034;-60
2023/10/07 10:40:31;;;;;;;3.08;1.83;;;21.70;52.30;;;;;;4999975;28;20034;-60
2023/10/07 10:42:57;;;;;;;5.18;2.30;;;21.80;52.80;;;;;;5011652;28;20136;-60
2023/10/07 10:45:25;;;;;;;4.57;2.20;;;21.80;52.10;;;;;;4997987;28;20106;-62
2023/10/07 10:47:54;;;;;;;3.88;2.15;;;21.90;52.00;;;;;;4999751;28;20041;-61
2023/10/07 10:50:23;;;;;;;3.05;1.95;;;21.90;51.90;;;;;;4999280;28;20363;-62
2023/10/07 10:53:07;;;;;;;4.03;2.30;;;21.90;51.80;;;;;;4998469;28;20037;-61
2023/10/07 10:55:38;;;;;;;3.22;1.90;;;22.00;51.80;;;;;;5001003;28;20439;-60
2023/10/07 10:58:16;;;;;;;3.30;2.10;;;22.00;51.70;;;;;;4999006;28;20106;-63
2023/10/07 11:00:51;;;;;;;3.30;2.08;;;22.00;51.70;;;;;;4998215;28;20073;-62
2023/10/07 11:03:20;;;;;;;3.20;1.90;;;22.10;51.70;;;;;;4999323;28;20121;-62
2023/10/07 11:05:52;;;;;;;;;;;22.10;51.70;;;;;;4998428;28;20041;-60
2023/10/07 11:08:23;;;;;;;3.67;2.00;;;22.10;51.60;;;;;;4998758;28;19909;-60
2023/10/07 11:10:53;;;;;;;3.83;2.00;;;22.10;51.60;;;;;;5013925;28;20038;-63
2023/10/07 11:13:20;;;;;;;3.75;1.60;;;22.10;51.60;;;;;;4998949;28;20126;-61
2023/10/07 11:15:58;;;;;;;3.35;1.90;;;22.10;51.70;;;;;;4998205;28;20088;-65
2023/10/07 11:18:31;;;;;;;2.75;1.75;;;22.10;51.60;;;;;;4995818;28;20481;-63
2023/10/07 11:20:57;;;;;;;2.90;1.50;;;22.10;51.70;;;;;;4999196;28;20018;-63
2023/10/07 11:23:22;;;;;;;2.17;1.50;;;22.10;51.70;;;;;;4998165;28;20118;-61
2023/10/07 11:25:50;;;;;;;2.80;1.60;;;22.10;51.70;;;;;;4999992;28;20058;-63
2023/10/07 11:28:20;;;;;;;2.80;1.55;;;22.10;52.20;;;;;;4996968;28;20034;-67
2023/10/07 11:30:49;;;;;;;2.70;1.67;;;22.10;51.70;;;;;;4996516;28;20394;-62
2023/10/07 11:33:19;;;;;;;2.85;1.20;;;22.10;51.70;;;;;;5000584;28;20053;-62
2023/10/07 11:35:57;;;;;;;2.50;1.30;;;22.20;51.70;;;;;;4999794;28;20041;-61
2023/10/07 11:38:25;;;;;;;2.97;1.63;;;22.10;51.70;;;;;;4999216;28;20113;-63
2023/10/07 11:40:51;;;;;;;3.97;1.60;;;22.20;51.70;;;;;;5002183;28;20022;-61
2023/10/07 11:43:16;;;;;;;2.95;1.80;;;22.20;51.70;;;;;;5004381;28;20747;-62
2023/10/07 11:45:44;;;;;;;3.95;2.00;;;22.20;51.60;;;;;;4998577;28;20471;-61
2023/10/07 11:48:09;;;;;;;2.67;1.65;;;22.20;52.00;;;;;;5000605;28;20045;-62
2023/10/07 11:50:36;;;;;;;3.10;1.70;;;22.30;51.40;;;;;;4998686;28;20453;-62
2023/10/07 11:53:03;;;;;;;4.35;2.13;;;22.30;51.40;;;;;;5002410;28;20018;-65
2023/10/07 11:55:31;;;;;;;3.35;1.98;;;22.30;51.30;;;;;;5001284;28;20385;-62
2023/10/07 11:57:58;;;;;;;2.90;1.85;;;22.40;51.30;;;;;;5002320;28;20034;-62
2023/10/07 12:00:29;;;;;;;2.97;1.90;;;22.40;51.30;;;;;;5001870;28;20032;-63
2023/10/07 12:02:58;;;;;;;3.17;1.70;;;22.40;51.30;;;;;;5002013;28;20050;-63
2023/10/07 12:05:27;;;;;;;2.60;1.50;;;22.40;51.20;;;;;;5000582;28;20096;-61
2023/10/07 12:07:59;;;;;;;2.67;1.55;;;22.40;51.30;;;;;;5004903;28;20046;-62
2023/10/07 12:10:26;;;;;;;3.88;1.80;;;22.40;51.20;;;;;;5004082;28;20041;-61
2023/10/07 12:12:52;;;;;;;2.47;1.75;;;22.40;51.20;;;;;;5000853;28;20025;-62
2023/10/07 12:15:18;;;;;;;3.50;1.67;;;22.50;51.30;;;;;;4998563;28;20092;-63
2023/10/07 12:17:44;;;;;;;2.83;1.60;;;22.50;51.20;;;;;;5000062;28;20046;-67
2023/10/07 12:20:13;;;;;;;2.63;1.88;;;22.50;51.20;;;;;;5002133;28;20034;-67
2023/10/07 12:22:42;;;;;;;3.05;1.92;;;22.50;51.20;;;;;;5001295;28;20093;-67
2023/10/07 12:25:13;;;;;;;;;;;22.50;51.10;;;;;;5001466;28;20038;-67
2023/10/07 12:27:39;;;;;;;2.60;1.73;;;22.50;51.10;;;;;;5014584;28;20005;-67
2023/10/07 12:30:10;;;;;;;2.90;1.80;;;22.50;51.10;;;;;;5000534;28;20481;-67
2023/10/07 12:32:41;;;;;;;3.33;1.70;;;22.50;51.10;;;;;;5000334;28;20022;-67
2023/10/07 12:35:09;;;;;;;2.40;1.50;;;22.50;51.00;;;;;;5000637;28;20054;-67
2023/10/07 12:37:38;;;;;;;3.13;1.80;;;22.50;51.00;;;;;;5001013;28;20052;-67
2023/10/07 12:40:05;;;;;;;4.55;1.90;;;22.50;51.50;;;;;;5000092;28;20049;-67
2023/10/07 12:42:32;;;;;;;2.60;1.65;;;22.50;51.00;;;;;;4999743;28;20080;-67
2023/10/07 12:45:01;;;;;;;4.15;1.77;;;22.50;51.00;;;;;;5001584;28;20474;-67
2023/10/07 12:47:29;;;;;;;2.92;1.58;;;22.50;51.00;;;;;;4998700;28;20494;-67
2023/10/07 12:49:55;;;;;;;3.13;1.70;;;22.60;51.00;;;;;;4999111;28;20545;-67
2023/10/07 12:52:24;;;;;;;2.47;1.70;;;22.60;51.00;;;;;;5000515;28;20401;-67
2023/10/07 12:54:50;;;;;;;2.95;1.75;;;22.50;50.90;;;;;;5001580;28;20053;-67
2023/10/07 12:57:16;;;;;;;2.80;1.77;;;22.60;51.00;;;;;;4999382;28;20026;-67
2023/10/07 12:59:42;;;;;;;2.95;1.60;;;22.60;51.00;;;;;;4998883;28;20033;-66
2023/10/07 13:02:09;;;;;;;2.92;1.70;;;22.50;50.90;;;;;;4999434;28;20069;-67
2023/10/07 13:04:35;;;;;;;2.90;1.70;;;22.60;51.00;;;;;;4999439;28;20551;-67
2023/10/07 13:07:03;;;;;;;2.72;1.73;;;22.50;50.90;;;;;;5000797;28;20026;-62
2023/10/07 13:09:33;;;;;;;2.88;1.60;;;22.60;51.00;;;;;;5000248;28;20026;-64
2023/10/07 13:12:00;;;;;;;2.78;1.60;;;22.60;50.90;;;;;;5000547;28;20065;-64
2023/10/07 13:14:26;;;;;;;2.88;1.60;;;22.60;50.90;;;;;;4998574;28;20038;-65
2023/10/07 13:16:59;;;;;;;3.15;1.67;;;22.60;50.90;;;;;;4998231;28;20475;-65
2023/10/07 13:19:35;;;;;;;3.42;1.80;;;22.60;51.00;;;;;;5001669;28;20033;-65
2023/10/07 13:22:05;;;;;;;4.55;1.70;;;22.60;50.90;;;;;;4999934;28;20068;-65
2023/10/07 13:24:34;;;;;;;2.72;1.67;;;22.60;51.00;;;;;;5000673;28;20029;-65
2023/10/07 13:27:02;;;;;;;3.60;1.70;;;22.60;50.90;;;;;;4998956;28;20042;-68
2023/10/07 13:29:27;;;;;;;2.83;1.70;;;22.70;51.00;;;;;;5001410;28;20390;-68
2023/10/07 13:31:53;;;;;;;4.32;1.70;;;22.70;50.90;;;;;;5000053;28;20030;-69
2023/10/07 13:34:21;;;;;;;3.05;1.65;;;22.70;50.90;;;;;;5013859;28;20374;-68
2023/10/07 13:36:48;;;;;;;3.10;1.70;;;22.70;50.90;;;;;;5001741;28;20017;-68
2023/10/07 13:39:16;;;;;;;2.60;1.40;;;22.70;50.90;;;;;;5002299;28;20029;-68
2023/10/07 13:41:46;;;;;;;3.33;1.65;;;22.70;50.90;;;;;;4999913;28;20078;-68
2023/10/07 13:44:16;;;;;;;2.67;1.50;;;22.70;50.90;;;;;;4999364;28;20563;-68
2023/10/07 13:46:43;;;;;;;2.95;1.60;;;22.70;50.80;;;;;;4997812;28;20096;-68
2023/10/07 13:49:09;;;;;;;3.78;1.70;;;22.70;50.80;;;;;;5001639;28;20093;-68
2023/10/07 13:51:41;;;;;;;2.47;1.52;;;22.70;50.80;;;;;;5000322;28;20038;-68
2023/10/07 13:56:56;;;;;;;3.78;1.80;;;22.80;50.80;;;;;;4999900;28;20118;-68
2023/10/07 13:59:22;;;;;;;3.60;2.00;;;22.80;50.80;;;;;;5000606;28;20018;-68
2023/10/07 14:01:51;;;;;;;3.45;2.00;;;22.80;50.70;;;;;;4998441;28;20370;-70